N296PG -KJWN
Flight info
| Callsign | N296PG |
|---|---|
| Flight time | N/A |
| Altitude | VFR |
| Route | |
| Aircraft |
Departure
| Time | N/A |
|---|---|
| Airport | - |
Arrival
| Time | 2026-04-25 17:28 |
|---|---|
| Airport | John C Tune Airport (KJWN) |
| Time | Latitude | Longitude | Altitude | Speed | Heading |
|---|---|---|---|---|---|
| 2026-04-25 17:01 | 36.23119 | -85.48231 | 17469 ft | 259 kts | 263° |
| 2026-04-25 17:01 | 36.23061 | -85.50458 | 17471 ft | 259 kts | 263° |
| 2026-04-25 17:01 | 36.22994 | -85.52685 | 17471 ft | 259 kts | 263° |
| 2026-04-25 17:01 | 36.22928 | -85.54911 | 17488 ft | 258 kts | 263° |
| 2026-04-25 17:02 | 36.22863 | -85.57136 | 17490 ft | 258 kts | 263° |
| 2026-04-25 17:02 | 36.22798 | -85.59355 | 17489 ft | 258 kts | 263° |
| 2026-04-25 17:02 | 36.22731 | -85.61576 | 17490 ft | 258 kts | 263° |
| 2026-04-25 17:02 | 36.22708 | -85.62326 | 17493 ft | 258 kts | 263° |
| 2026-04-25 17:03 | 36.22616 | -85.65273 | 17489 ft | 258 kts | 263° |
| 2026-04-25 17:03 | 36.22548 | -85.67495 | 17490 ft | 258 kts | 263° |
| 2026-04-25 17:03 | 36.22482 | -85.69720 | 17491 ft | 259 kts | 263° |
| 2026-04-25 17:03 | 36.22412 | -85.71950 | 17487 ft | 259 kts | 263° |
| 2026-04-25 17:04 | 36.22343 | -85.74179 | 17487 ft | 259 kts | 263° |
| 2026-04-25 17:04 | 36.22275 | -85.76407 | 17490 ft | 259 kts | 263° |
| 2026-04-25 17:04 | 36.22206 | -85.78637 | 17489 ft | 259 kts | 263° |
| 2026-04-25 17:04 | 36.22136 | -85.80864 | 17488 ft | 259 kts | 263° |
| 2026-04-25 17:05 | 36.22064 | -85.83091 | 17480 ft | 259 kts | 263° |
| 2026-04-25 17:05 | 36.21922 | -85.87549 | 17481 ft | 259 kts | 263° |
| 2026-04-25 17:05 | 36.21849 | -85.89783 | 17479 ft | 260 kts | 263° |
| 2026-04-25 17:06 | 36.21775 | -85.92015 | 17478 ft | 260 kts | 262° |
| 2026-04-25 17:06 | 36.21703 | -85.94246 | 17480 ft | 258 kts | 263° |
| 2026-04-25 17:06 | 36.21632 | -85.96459 | 17482 ft | 257 kts | 263° |
| 2026-04-25 17:06 | 36.21562 | -85.98656 | 17481 ft | 254 kts | 262° |
| 2026-04-25 17:07 | 36.21491 | -86.00837 | 17477 ft | 254 kts | 262° |
| 2026-04-25 17:07 | 36.21415 | -86.03025 | 17479 ft | 255 kts | 262° |
| 2026-04-25 17:07 | 36.21343 | -86.05226 | 17481 ft | 256 kts | 262° |
| 2026-04-25 17:07 | 36.21269 | -86.07425 | 17481 ft | 256 kts | 262° |
| 2026-04-25 17:08 | 36.21193 | -86.09641 | 17459 ft | 258 kts | 262° |
| 2026-04-25 17:08 | 36.21101 | -86.11948 | 16843 ft | 280 kts | 262° |
| 2026-04-25 17:08 | 36.21003 | -86.14435 | 16221 ft | 296 kts | 262° |
| 2026-04-25 17:08 | 36.20913 | -86.17001 | 15591 ft | 301 kts | 263° |
| 2026-04-25 17:09 | 36.20822 | -86.19609 | 14957 ft | 304 kts | 263° |
| 2026-04-25 17:09 | 36.20740 | -86.22092 | 14326 ft | 278 kts | 263° |
| 2026-04-25 17:09 | 36.20663 | -86.24502 | 13690 ft | 283 kts | 263° |
| 2026-04-25 17:09 | 36.20571 | -86.26943 | 13063 ft | 286 kts | 263° |
| 2026-04-25 17:10 | 36.20477 | -86.29409 | 12430 ft | 287 kts | 263° |
| 2026-04-25 17:10 | 36.20386 | -86.31885 | 11795 ft | 289 kts | 263° |
| 2026-04-25 17:10 | 36.20296 | -86.34361 | 11159 ft | 288 kts | 263° |
| 2026-04-25 17:10 | 36.20207 | -86.36836 | 10526 ft | 284 kts | 264° |
| 2026-04-25 17:11 | 36.20124 | -86.39247 | 9888 ft | 278 kts | 264° |
| 2026-04-25 17:11 | 36.20042 | -86.41620 | 9255 ft | 273 kts | 264° |
| 2026-04-25 17:11 | 36.19957 | -86.43947 | 8627 ft | 269 kts | 264° |
| 2026-04-25 17:11 | 36.19871 | -86.46250 | 8001 ft | 267 kts | 264° |
| 2026-04-25 17:12 | 36.19783 | -86.48507 | 7377 ft | 265 kts | 264° |
| 2026-04-25 17:12 | 36.19700 | -86.50811 | 6809 ft | 263 kts | 264° |
| 2026-04-25 17:12 | 36.19634 | -86.52941 | 6780 ft | 245 kts | 264° |
| 2026-04-25 17:12 | 36.19556 | -86.55037 | 6605 ft | 241 kts | 264° |
| 2026-04-25 17:13 | 36.19475 | -86.57119 | 6331 ft | 242 kts | 264° |
| 2026-04-25 17:13 | 36.19424 | -86.58514 | 6148 ft | 242 kts | 264° |
| 2026-04-25 17:13 | 36.19316 | -86.61283 | 5786 ft | 242 kts | 264° |
| 2026-04-25 17:13 | 36.19235 | -86.63366 | 5512 ft | 242 kts | 264° |
| 2026-04-25 17:14 | 36.19154 | -86.65451 | 5239 ft | 243 kts | 264° |
| 2026-04-25 17:14 | 36.19072 | -86.67530 | 4967 ft | 243 kts | 264° |
| 2026-04-25 17:14 | 36.18991 | -86.69627 | 4692 ft | 242 kts | 264° |
| 2026-04-25 17:14 | 36.18910 | -86.71700 | 4419 ft | 243 kts | 264° |
| 2026-04-25 17:15 | 36.18826 | -86.73796 | 4144 ft | 243 kts | 264° |
| 2026-04-25 17:15 | 36.18749 | -86.75881 | 3984 ft | 238 kts | 264° |
| 2026-04-25 17:15 | 36.18665 | -86.77918 | 3985 ft | 230 kts | 262° |
| 2026-04-25 17:15 | 36.18021 | -86.79630 | 4045 ft | 226 kts | 220° |
| 2026-04-25 17:16 | 36.16605 | -86.80370 | 4030 ft | 224 kts | 186° |
| 2026-04-25 17:16 | 36.15064 | -86.80622 | 3989 ft | 223 kts | 183° |
| 2026-04-25 17:16 | 36.13516 | -86.80857 | 3992 ft | 223 kts | 183° |
| 2026-04-25 17:16 | 36.11979 | -86.81090 | 3993 ft | 222 kts | 183° |
| 2026-04-25 17:17 | 36.10447 | -86.81326 | 3992 ft | 223 kts | 183° |
| 2026-04-25 17:17 | 36.08915 | -86.81559 | 3987 ft | 222 kts | 183° |
| 2026-04-25 17:17 | 36.07378 | -86.81796 | 3989 ft | 222 kts | 183° |
| 2026-04-25 17:17 | 36.05846 | -86.82032 | 3988 ft | 222 kts | 183° |
| 2026-04-25 17:18 | 36.04296 | -86.82269 | 3987 ft | 222 kts | 183° |
| 2026-04-25 17:18 | 36.02768 | -86.82505 | 3991 ft | 221 kts | 183° |
| 2026-04-25 17:18 | 36.01239 | -86.82737 | 3991 ft | 222 kts | 183° |
| 2026-04-25 17:18 | 35.99730 | -86.82967 | 3977 ft | 222 kts | 183° |
| 2026-04-25 17:19 | 35.98136 | -86.83197 | 3517 ft | 238 kts | 183° |
| 2026-04-25 17:19 | 35.96460 | -86.83421 | 3052 ft | 245 kts | 182° |
| 2026-04-25 17:19 | 35.94797 | -86.83652 | 2986 ft | 236 kts | 183° |
| 2026-04-25 17:19 | 35.93199 | -86.83942 | 2944 ft | 230 kts | 194° |
| 2026-04-25 17:20 | 35.91919 | -86.85051 | 2877 ft | 229 kts | 229° |
| 2026-04-25 17:20 | 35.91415 | -86.86881 | 2816 ft | 227 kts | 266° |
| 2026-04-25 17:20 | 35.91710 | -86.88779 | 2849 ft | 223 kts | 283° |
| 2026-04-25 17:20 | 35.92148 | -86.90595 | 2946 ft | 217 kts | 283° |
| 2026-04-25 17:21 | 35.92584 | -86.92379 | 2978 ft | 218 kts | 283° |
| 2026-04-25 17:21 | 35.93231 | -86.94039 | 2921 ft | 219 kts | 309° |
| 2026-04-25 17:21 | 35.94504 | -86.94893 | 2876 ft | 202 kts | 348° |
| 2026-04-25 17:21 | 35.95839 | -86.94925 | 2949 ft | 182 kts | 357° |
| 2026-04-25 17:22 | 35.97038 | -86.95113 | 3005 ft | 169 kts | 343° |
| 2026-04-25 17:22 | 35.97802 | -86.95274 | 2961 ft | 169 kts | 357° |
| 2026-04-25 17:22 | 35.99315 | -86.94830 | 2994 ft | 166 kts | 12° |
| 2026-04-25 17:22 | 36.00430 | -86.94473 | 2982 ft | 166 kts | 10° |
| 2026-04-25 17:23 | 36.01616 | -86.94116 | 2570 ft | 186 kts | 11° |
| 2026-04-25 17:23 | 36.02862 | -86.93714 | 2501 ft | 177 kts | 12° |
| 2026-04-25 17:23 | 36.03974 | -86.93340 | 2488 ft | 156 kts | 12° |
| 2026-04-25 17:23 | 36.04955 | -86.93015 | 2493 ft | 137 kts | 12° |
| 2026-04-25 17:24 | 36.05874 | -86.92708 | 2489 ft | 140 kts | 11° |
| 2026-04-25 17:24 | 36.06824 | -86.92396 | 2494 ft | 143 kts | 12° |
| 2026-04-25 17:24 | 36.07803 | -86.92082 | 2410 ft | 147 kts | 11° |
| 2026-04-25 17:24 | 36.08793 | -86.91772 | 2216 ft | 147 kts | 11° |
| 2026-04-25 17:25 | 36.09759 | -86.91449 | 2028 ft | 138 kts | 12° |
| 2026-04-25 17:25 | 36.10631 | -86.91160 | 1852 ft | 121 kts | 11° |
| 2026-04-25 17:25 | 36.11400 | -86.90907 | 1693 ft | 109 kts | 11° |
| 2026-04-25 17:25 | 36.12103 | -86.90676 | 1554 ft | 104 kts | 11° |
| 2026-04-25 17:26 | 36.12812 | -86.90443 | 1426 ft | 107 kts | 11° |
| 2026-04-25 17:26 | 36.13540 | -86.90210 | 1288 ft | 108 kts | 11° |
| 2026-04-25 17:26 | 36.14259 | -86.89977 | 1142 ft | 106 kts | 11° |
| 2026-04-25 17:26 | 36.14961 | -86.89747 | 1000 ft | 103 kts | 11° |
| 2026-04-25 17:27 | 36.15651 | -86.89524 | 855 ft | 101 kts | 11° |
| 2026-04-25 17:27 | 36.16328 | -86.89306 | 730 ft | 102 kts | 11° |
| 2026-04-25 17:27 | 36.17016 | -86.89081 | 599 ft | 103 kts | 11° |
| 2026-04-25 17:27 | 36.17252 | -86.89004 | 549 ft | 103 kts | 11° |
| 2026-04-25 17:28 | 36.18320 | -86.88658 | 488 ft | 83 kts | 11° |
| 2026-04-25 17:28 | 36.18664 | -86.88541 | 501 ft | 32 kts | 18° |
| 2026-04-25 17:28 | 36.18810 | -86.88477 | 508 ft | 12 kts | 56° |
| 2026-04-25 17:28 | 36.18811 | -86.88402 | 509 ft | 6 kts | 105° |
| 2026-04-25 17:29 | 36.18784 | -86.88358 | 507 ft | 8 kts | 170° |
| 2026-04-25 17:29 | 36.18725 | -86.88373 | 503 ft | 9 kts | 194° |
| 2026-04-25 17:29 | 36.18665 | -86.88392 | 500 ft | 9 kts | 194° |
| 2026-04-25 17:29 | 36.18605 | -86.88410 | 497 ft | 8 kts | 195° |
| 2026-04-25 17:30 | 36.18555 | -86.88428 | 496 ft | 7 kts | 192° |
| 2026-04-25 17:30 | 36.18510 | -86.88443 | 495 ft | 6 kts | 197° |
| 2026-04-25 17:30 | 36.18466 | -86.88457 | 493 ft | 7 kts | 192° |
| 2026-04-25 17:30 | 36.18399 | -86.88479 | 490 ft | 13 kts | 195° |
| 2026-04-25 17:31 | 36.18295 | -86.88512 | 485 ft | 18 kts | 194° |
| 2026-04-25 17:31 | 36.18161 | -86.88556 | 481 ft | 21 kts | 195° |
| 2026-04-25 17:31 | 36.18039 | -86.88598 | 477 ft | 13 kts | 194° |
| 2026-04-25 17:31 | 36.18023 | -86.88534 | 473 ft | 8 kts | 22° |
| 2026-04-25 17:32 | 36.18060 | -86.88522 | 477 ft | 3 kts | 10° |
| 2026-04-25 17:32 | 36.18066 | -86.88520 | 477 ft | 1 kts | 13° |